HUN6MJ LHBP-LEAL
Flight info
| Callsign | HUN6MJ |
|---|---|
| Flight time | 2h 53m |
| Altitude | 36000 |
| Route | DUZLA KOPRY ZAG BAXON/N0445F370 GAVRA GOVGO DOBIM SORAS N850 ADX Z237 OKITI M603 GERVU |
| Aircraft | B738/M-SDE2E3FGHIJ2J5RWXY/L |
Departure
| Time | 2026-05-05 09:40 |
|---|---|
| Airport | Budapest Liszt Ferenc International Airport (LHBP) |
Arrival
| Time | 2026-05-05 12:34 |
|---|---|
| Airport | Alicante-Elche Miguel Hernández Airport (LEAL) |
| Time | Latitude | Longitude | Altitude | Speed | Heading |
|---|---|---|---|---|---|
| 2026-05-05 09:20 | 47.43422 | 19.26300 | 475 ft | 0 kts | 222° |
| 2026-05-05 09:34 | 47.43433 | 19.26314 | 475 ft | 2 kts | 221° |
| 2026-05-05 09:34 | 47.43444 | 19.26329 | 475 ft | 2 kts | 223° |
| 2026-05-05 09:34 | 47.43455 | 19.26344 | 475 ft | 2 kts | 223° |
| 2026-05-05 09:35 | 47.43460 | 19.26363 | 475 ft | 2 kts | 277° |
| 2026-05-05 09:35 | 47.43452 | 19.26386 | 475 ft | 1 kts | 313° |
| 2026-05-05 09:35 | 47.43451 | 19.26386 | 475 ft | 0 kts | 313° |
| 2026-05-05 09:37 | 47.43476 | 19.26346 | 475 ft | 14 kts | 311° |
| 2026-05-05 09:37 | 47.43558 | 19.26216 | 476 ft | 17 kts | 321° |
| 2026-05-05 09:38 | 47.43646 | 19.26108 | 477 ft | 16 kts | 312° |
| 2026-05-05 09:38 | 47.43729 | 19.25979 | 478 ft | 16 kts | 327° |
| 2026-05-05 09:38 | 47.43825 | 19.26035 | 479 ft | 17 kts | 42° |
| 2026-05-05 09:38 | 47.43910 | 19.26149 | 480 ft | 15 kts | 42° |
| 2026-05-05 09:39 | 47.43988 | 19.26256 | 480 ft | 15 kts | 42° |
| 2026-05-05 09:39 | 47.44056 | 19.26376 | 480 ft | 15 kts | 58° |
| 2026-05-05 09:39 | 47.44056 | 19.26536 | 479 ft | 23 kts | 123° |
| 2026-05-05 09:39 | 47.43840 | 19.26889 | 472 ft | 83 kts | 132° |
| 2026-05-05 09:40 | 47.43272 | 19.27809 | 445 ft | 156 kts | 133° |
| 2026-05-05 09:40 | 47.42445 | 19.29167 | 777 ft | 189 kts | 134° |
| 2026-05-05 09:40 | 47.41647 | 19.30656 | 1772 ft | 189 kts | 125° |
| 2026-05-05 09:40 | 47.41013 | 19.32363 | 2499 ft | 197 kts | 120° |
| 2026-05-05 09:41 | 47.40360 | 19.34208 | 3091 ft | 211 kts | 121° |
| 2026-05-05 09:41 | 47.39637 | 19.36161 | 3656 ft | 226 kts | 122° |
| 2026-05-05 09:41 | 47.38856 | 19.38231 | 4205 ft | 243 kts | 122° |
| 2026-05-05 09:41 | 47.37932 | 19.40345 | 4864 ft | 252 kts | 135° |
| 2026-05-05 09:42 | 47.36473 | 19.41788 | 5500 ft | 259 kts | 163° |
| 2026-05-05 09:42 | 47.34694 | 19.42151 | 6345 ft | 260 kts | 184° |
| 2026-05-05 09:42 | 47.32917 | 19.41709 | 7177 ft | 264 kts | 197° |
| 2026-05-05 09:42 | 47.31295 | 19.40492 | 7995 ft | 268 kts | 219° |
| 2026-05-05 09:43 | 47.30174 | 19.38365 | 8821 ft | 274 kts | 240° |
| 2026-05-05 09:43 | 47.29394 | 19.35788 | 9639 ft | 278 kts | 243° |
| 2026-05-05 09:43 | 47.28635 | 19.33163 | 10378 ft | 284 kts | 243° |
| 2026-05-05 09:43 | 47.27831 | 19.30451 | 10848 ft | 299 kts | 243° |
| 2026-05-05 09:44 | 47.26959 | 19.27565 | 11327 ft | 314 kts | 243° |
| 2026-05-05 09:44 | 47.26059 | 19.24607 | 11768 ft | 330 kts | 243° |
| 2026-05-05 09:44 | 47.25092 | 19.21437 | 12218 ft | 345 kts | 243° |
| 2026-05-05 09:44 | 47.24107 | 19.18202 | 12850 ft | 354 kts | 243° |
| 2026-05-05 09:45 | 47.23102 | 19.14897 | 13586 ft | 359 kts | 243° |
| 2026-05-05 09:45 | 47.22078 | 19.11532 | 14366 ft | 362 kts | 244° |
| 2026-05-05 09:45 | 47.21050 | 19.08159 | 15092 ft | 367 kts | 244° |
| 2026-05-05 09:45 | 47.19934 | 19.04821 | 15837 ft | 369 kts | 239° |
| 2026-05-05 09:46 | 47.18540 | 19.01668 | 16527 ft | 372 kts | 230° |
| 2026-05-05 09:46 | 47.16809 | 18.98858 | 17237 ft | 374 kts | 223° |
| 2026-05-05 09:46 | 47.14874 | 18.96261 | 17916 ft | 378 kts | 220° |
| 2026-05-05 09:46 | 47.12868 | 18.93791 | 18565 ft | 382 kts | 218° |
| 2026-05-05 09:47 | 47.10814 | 18.91340 | 19192 ft | 386 kts | 218° |
| 2026-05-05 09:47 | 47.08720 | 18.88847 | 19794 ft | 390 kts | 219° |
| 2026-05-05 09:47 | 47.06624 | 18.86333 | 20385 ft | 395 kts | 219° |
| 2026-05-05 09:47 | 47.04509 | 18.83780 | 20987 ft | 398 kts | 219° |
| 2026-05-05 09:48 | 47.02354 | 18.81167 | 21544 ft | 403 kts | 219° |
| 2026-05-05 09:48 | 47.00188 | 18.78534 | 22101 ft | 407 kts | 220° |
| 2026-05-05 09:48 | 46.98076 | 18.75831 | 22670 ft | 410 kts | 223° |
| 2026-05-05 09:48 | 46.96103 | 18.72826 | 23180 ft | 414 kts | 230° |
| 2026-05-05 09:49 | 46.94334 | 18.69455 | 23727 ft | 417 kts | 235° |
| 2026-05-05 09:49 | 46.92751 | 18.65923 | 24248 ft | 421 kts | 238° |
| 2026-05-05 09:49 | 46.91258 | 18.62293 | 24809 ft | 423 kts | 240° |
| 2026-05-05 09:49 | 46.89787 | 18.58540 | 25322 ft | 426 kts | 241° |
| 2026-05-05 09:50 | 46.88330 | 18.54759 | 25812 ft | 429 kts | 241° |
| 2026-05-05 09:50 | 46.86881 | 18.50995 | 26318 ft | 431 kts | 241° |
| 2026-05-05 09:50 | 46.85405 | 18.47180 | 26809 ft | 434 kts | 241° |
| 2026-05-05 09:50 | 46.83916 | 18.43358 | 27288 ft | 436 kts | 240° |
| 2026-05-05 09:51 | 46.82401 | 18.39494 | 27754 ft | 439 kts | 240° |
| 2026-05-05 09:51 | 46.80872 | 18.35616 | 28193 ft | 442 kts | 240° |
| 2026-05-05 09:51 | 46.79337 | 18.31743 | 28651 ft | 445 kts | 240° |
| 2026-05-05 09:51 | 46.77781 | 18.27826 | 29119 ft | 446 kts | 240° |
| 2026-05-05 09:52 | 46.76245 | 18.23974 | 29595 ft | 447 kts | 240° |
| 2026-05-05 09:52 | 46.74698 | 18.20103 | 30289 ft | 443 kts | 240° |
| 2026-05-05 09:52 | 46.73144 | 18.16222 | 30911 ft | 440 kts | 240° |
| 2026-05-05 09:52 | 46.71612 | 18.12401 | 31447 ft | 438 kts | 240° |
| 2026-05-05 09:53 | 46.70092 | 18.08614 | 31874 ft | 438 kts | 240° |
| 2026-05-05 09:53 | 46.68540 | 18.04755 | 32302 ft | 438 kts | 240° |
| 2026-05-05 09:53 | 46.67023 | 18.00988 | 32747 ft | 438 kts | 240° |
| 2026-05-05 09:53 | 46.65482 | 17.97166 | 33191 ft | 437 kts | 240° |
| 2026-05-05 09:54 | 46.63948 | 17.93367 | 33606 ft | 436 kts | 240° |
| 2026-05-05 09:54 | 46.62422 | 17.89591 | 33974 ft | 436 kts | 240° |
| 2026-05-05 09:54 | 46.60889 | 17.85805 | 34413 ft | 435 kts | 240° |
| 2026-05-05 09:54 | 46.59376 | 17.82074 | 34765 ft | 434 kts | 240° |
| 2026-05-05 09:55 | 46.57828 | 17.78261 | 35075 ft | 434 kts | 240° |
| 2026-05-05 09:55 | 46.56319 | 17.74551 | 35413 ft | 432 kts | 240° |
| 2026-05-05 09:55 | 46.54784 | 17.70782 | 35755 ft | 431 kts | 240° |
| 2026-05-05 09:55 | 46.53262 | 17.67051 | 35950 ft | 433 kts | 240° |
| 2026-05-05 09:56 | 46.50207 | 17.59575 | 35954 ft | 431 kts | 240° |
| 2026-05-05 09:56 | 46.47169 | 17.52163 | 35954 ft | 429 kts | 240° |
| 2026-05-05 09:57 | 46.44124 | 17.44749 | 35950 ft | 431 kts | 240° |
| 2026-05-05 09:57 | 46.41057 | 17.37304 | 35944 ft | 429 kts | 240° |
| 2026-05-05 09:58 | 46.38007 | 17.29917 | 35952 ft | 428 kts | 240° |
| 2026-05-05 09:58 | 46.34968 | 17.22580 | 35952 ft | 428 kts | 240° |
| 2026-05-05 09:59 | 46.31916 | 17.15230 | 35941 ft | 427 kts | 239° |
| 2026-05-05 09:59 | 46.28855 | 17.07878 | 35947 ft | 427 kts | 240° |
| 2026-05-05 10:00 | 46.25791 | 17.00538 | 35957 ft | 427 kts | 239° |
| 2026-05-05 10:00 | 46.22667 | 16.93339 | 35963 ft | 426 kts | 236° |
| 2026-05-05 10:01 | 46.19139 | 16.86474 | 35963 ft | 427 kts | 233° |
| 2026-05-05 10:01 | 46.15523 | 16.79743 | 35966 ft | 427 kts | 233° |
| 2026-05-05 10:02 | 46.11909 | 16.72978 | 35962 ft | 426 kts | 234° |
| 2026-05-05 10:02 | 46.08321 | 16.66202 | 35964 ft | 426 kts | 234° |
| 2026-05-05 10:03 | 46.04764 | 16.59459 | 35976 ft | 426 kts | 234° |
| 2026-05-05 10:03 | 46.01186 | 16.52675 | 35973 ft | 426 kts | 234° |
| 2026-05-05 10:04 | 45.97627 | 16.45937 | 35969 ft | 426 kts | 234° |
| 2026-05-05 10:04 | 45.94058 | 16.39194 | 35974 ft | 426 kts | 234° |
| 2026-05-05 10:05 | 45.90484 | 16.32459 | 35975 ft | 426 kts | 233° |
| 2026-05-05 10:05 | 45.86948 | 16.25643 | 35982 ft | 426 kts | 235° |
| 2026-05-05 10:06 | 45.83530 | 16.18723 | 35981 ft | 425 kts | 236° |
| 2026-05-05 10:06 | 45.80154 | 16.11851 | 35977 ft | 425 kts | 236° |
| 2026-05-05 10:07 | 45.76741 | 16.04954 | 35979 ft | 425 kts | 236° |
| 2026-05-05 10:07 | 45.73310 | 15.98065 | 35980 ft | 425 kts | 236° |
| 2026-05-05 10:08 | 45.69886 | 15.91220 | 35979 ft | 426 kts | 236° |
| 2026-05-05 10:08 | 45.66442 | 15.84357 | 35989 ft | 427 kts | 235° |
| 2026-05-05 10:09 | 45.62977 | 15.77471 | 35987 ft | 426 kts | 235° |
| 2026-05-05 10:09 | 45.59532 | 15.70644 | 35989 ft | 426 kts | 235° |
| 2026-05-05 10:10 | 45.56083 | 15.63826 | 35991 ft | 426 kts | 235° |
| 2026-05-05 10:10 | 45.52619 | 15.56995 | 36001 ft | 426 kts | 235° |
| 2026-05-05 10:11 | 45.49160 | 15.50187 | 35994 ft | 427 kts | 235° |
| 2026-05-05 10:11 | 45.45675 | 15.43344 | 36001 ft | 427 kts | 235° |
| 2026-05-05 10:12 | 45.42205 | 15.36546 | 36004 ft | 427 kts | 235° |
| 2026-05-05 10:12 | 45.38712 | 15.29720 | 36011 ft | 428 kts | 234° |
| 2026-05-05 10:13 | 45.35204 | 15.22880 | 36014 ft | 427 kts | 234° |
| 2026-05-05 10:13 | 45.31723 | 15.16112 | 36018 ft | 427 kts | 234° |
| 2026-05-05 10:14 | 45.28225 | 15.09325 | 36024 ft | 428 kts | 234° |
| 2026-05-05 10:14 | 45.24704 | 15.02513 | 36027 ft | 428 kts | 234° |
| 2026-05-05 10:15 | 45.21190 | 14.95732 | 36027 ft | 428 kts | 234° |
| 2026-05-05 10:15 | 45.17672 | 14.88956 | 36035 ft | 428 kts | 234° |
| 2026-05-05 10:16 | 45.14136 | 14.82161 | 36035 ft | 428 kts | 234° |
| 2026-05-05 10:16 | 45.10617 | 14.75417 | 36040 ft | 429 kts | 234° |
| 2026-05-05 10:17 | 45.07074 | 14.68641 | 36041 ft | 428 kts | 234° |
| 2026-05-05 10:17 | 45.03570 | 14.61959 | 36039 ft | 426 kts | 234° |
| 2026-05-05 10:18 | 45.00034 | 14.55229 | 36034 ft | 427 kts | 234° |
| 2026-05-05 10:18 | 44.96503 | 14.48527 | 36028 ft | 427 kts | 234° |
| 2026-05-05 10:19 | 44.92958 | 14.41816 | 36025 ft | 427 kts | 234° |
| 2026-05-05 10:19 | 44.89421 | 14.35138 | 36022 ft | 426 kts | 234° |
| 2026-05-05 10:20 | 44.85873 | 14.28451 | 36016 ft | 426 kts | 233° |
| 2026-05-05 10:20 | 44.82325 | 14.21773 | 36021 ft | 426 kts | 233° |
| 2026-05-05 10:21 | 44.78798 | 14.15153 | 36020 ft | 421 kts | 234° |
| 2026-05-05 10:21 | 44.75291 | 14.08591 | 36035 ft | 422 kts | 234° |
| 2026-05-05 10:22 | 44.71764 | 14.02006 | 36038 ft | 422 kts | 234° |
| 2026-05-05 10:22 | 44.68250 | 13.95457 | 36026 ft | 420 kts | 234° |
| 2026-05-05 10:23 | 44.64747 | 13.88943 | 36029 ft | 421 kts | 234° |
| 2026-05-05 10:23 | 44.61216 | 13.82395 | 36029 ft | 420 kts | 234° |
| 2026-05-05 10:24 | 44.57692 | 13.75872 | 36022 ft | 420 kts | 234° |
| 2026-05-05 10:24 | 44.54168 | 13.69364 | 36007 ft | 421 kts | 234° |
| 2026-05-05 10:25 | 44.50634 | 13.62855 | 36006 ft | 420 kts | 234° |
| 2026-05-05 10:25 | 44.47123 | 13.56401 | 36008 ft | 419 kts | 235° |
| 2026-05-05 10:26 | 44.43597 | 13.49928 | 36174 ft | 421 kts | 235° |
| 2026-05-05 10:26 | 44.41893 | 13.46609 | 36542 ft | 417 kts | 238° |
| 2026-05-05 10:26 | 44.40385 | 13.43210 | 36864 ft | 415 kts | 242° |
| 2026-05-05 10:27 | 44.38967 | 13.39688 | 37013 ft | 416 kts | 243° |
| 2026-05-05 10:27 | 44.37609 | 13.36134 | 37014 ft | 415 kts | 244° |
| 2026-05-05 10:27 | 44.34951 | 13.29015 | 37004 ft | 413 kts | 244° |
| 2026-05-05 10:28 | 44.32295 | 13.21938 | 37010 ft | 413 kts | 244° |
| 2026-05-05 10:28 | 44.29617 | 13.14886 | 37007 ft | 413 kts | 243° |
| 2026-05-05 10:29 | 44.26931 | 13.07867 | 37010 ft | 412 kts | 244° |
| 2026-05-05 10:29 | 44.24230 | 13.00849 | 37006 ft | 412 kts | 243° |
| 2026-05-05 10:30 | 44.21505 | 12.93793 | 37008 ft | 411 kts | 243° |
| 2026-05-05 10:30 | 44.18813 | 12.86836 | 37007 ft | 412 kts | 243° |
| 2026-05-05 10:31 | 44.16091 | 12.79821 | 37005 ft | 411 kts | 243° |
| 2026-05-05 10:31 | 44.13388 | 12.72874 | 37007 ft | 410 kts | 244° |
| 2026-05-05 10:32 | 44.10674 | 12.65921 | 37005 ft | 408 kts | 244° |
| 2026-05-05 10:32 | 44.07961 | 12.58983 | 37001 ft | 409 kts | 244° |
| 2026-05-05 10:33 | 44.05256 | 12.52085 | 37007 ft | 408 kts | 244° |
| 2026-05-05 10:33 | 44.02542 | 12.45181 | 37002 ft | 409 kts | 244° |
| 2026-05-05 10:34 | 43.99812 | 12.38251 | 37000 ft | 408 kts | 243° |
| 2026-05-05 10:34 | 43.97103 | 12.31389 | 36998 ft | 407 kts | 243° |
| 2026-05-05 10:35 | 43.94391 | 12.24538 | 36996 ft | 407 kts | 243° |
| 2026-05-05 10:35 | 43.91662 | 12.17655 | 36992 ft | 405 kts | 243° |
| 2026-05-05 10:36 | 43.88949 | 12.10834 | 36990 ft | 405 kts | 243° |
| 2026-05-05 10:36 | 43.86238 | 12.04031 | 36983 ft | 406 kts | 243° |
| 2026-05-05 10:37 | 43.83511 | 11.97212 | 36999 ft | 406 kts | 243° |
| 2026-05-05 10:37 | 43.80788 | 11.90413 | 37000 ft | 404 kts | 243° |
| 2026-05-05 10:38 | 43.78062 | 11.83627 | 36999 ft | 404 kts | 243° |
| 2026-05-05 10:38 | 43.75361 | 11.76843 | 36998 ft | 404 kts | 243° |
| 2026-05-05 10:39 | 43.72694 | 11.70050 | 37000 ft | 403 kts | 244° |
| 2026-05-05 10:39 | 43.70023 | 11.63255 | 37001 ft | 404 kts | 243° |
| 2026-05-05 10:40 | 43.67348 | 11.56477 | 37003 ft | 403 kts | 243° |
| 2026-05-05 10:40 | 43.64677 | 11.49736 | 37003 ft | 402 kts | 243° |
| 2026-05-05 10:41 | 43.62004 | 11.43006 | 37005 ft | 402 kts | 243° |
| 2026-05-05 10:41 | 43.59313 | 11.36249 | 37004 ft | 402 kts | 243° |
| 2026-05-05 10:42 | 43.55274 | 11.26143 | 37004 ft | 400 kts | 242° |
| 2026-05-05 10:43 | 43.52600 | 11.19469 | 37007 ft | 401 kts | 242° |
| 2026-05-05 10:43 | 43.49907 | 11.12768 | 37004 ft | 400 kts | 243° |
| 2026-05-05 10:44 | 43.47210 | 11.06065 | 37008 ft | 401 kts | 242° |
| 2026-05-05 10:44 | 43.44521 | 10.99399 | 37008 ft | 400 kts | 242° |
| 2026-05-05 10:45 | 43.41829 | 10.92747 | 37000 ft | 400 kts | 242° |
| 2026-05-05 10:45 | 43.39120 | 10.86066 | 37000 ft | 400 kts | 242° |
| 2026-05-05 10:46 | 43.36428 | 10.79444 | 36996 ft | 399 kts | 242° |
| 2026-05-05 10:46 | 43.33733 | 10.72830 | 36997 ft | 398 kts | 242° |
| 2026-05-05 10:47 | 43.31030 | 10.66208 | 36998 ft | 398 kts | 242° |
| 2026-05-05 10:47 | 43.28321 | 10.59590 | 36992 ft | 399 kts | 242° |
| 2026-05-05 10:48 | 43.25628 | 10.53025 | 36988 ft | 398 kts | 242° |
| 2026-05-05 10:48 | 43.22915 | 10.46429 | 36984 ft | 399 kts | 242° |
| 2026-05-05 10:49 | 43.20196 | 10.39830 | 36976 ft | 397 kts | 242° |
| 2026-05-05 10:49 | 43.17502 | 10.33301 | 36973 ft | 397 kts | 242° |
| 2026-05-05 10:50 | 43.14903 | 10.26619 | 36974 ft | 397 kts | 243° |
| 2026-05-05 10:50 | 43.12395 | 10.19879 | 36972 ft | 397 kts | 244° |
| 2026-05-05 10:51 | 43.09895 | 10.13173 | 36971 ft | 396 kts | 244° |
| 2026-05-05 10:51 | 43.07390 | 10.06519 | 36965 ft | 396 kts | 243° |
| 2026-05-05 10:52 | 43.04859 | 9.99838 | 36968 ft | 395 kts | 243° |
| 2026-05-05 10:52 | 43.02345 | 9.93226 | 36966 ft | 395 kts | 243° |
| 2026-05-05 10:53 | 42.99823 | 9.86613 | 36957 ft | 395 kts | 243° |
| 2026-05-05 10:53 | 42.97289 | 9.79985 | 36949 ft | 393 kts | 243° |
| 2026-05-05 10:54 | 42.94740 | 9.73385 | 36947 ft | 394 kts | 242° |
| 2026-05-05 10:54 | 42.92002 | 9.66960 | 36951 ft | 393 kts | 240° |
| 2026-05-05 10:55 | 42.89172 | 9.60577 | 36950 ft | 394 kts | 240° |
| 2026-05-05 10:55 | 42.86350 | 9.54189 | 36953 ft | 395 kts | 240° |
| 2026-05-05 10:56 | 42.83544 | 9.47808 | 36956 ft | 393 kts | 240° |
| 2026-05-05 10:56 | 42.80754 | 9.41447 | 36951 ft | 394 kts | 240° |
| 2026-05-05 10:57 | 42.77957 | 9.35076 | 36959 ft | 393 kts | 240° |
| 2026-05-05 10:57 | 42.75158 | 9.28715 | 36966 ft | 393 kts | 240° |
| 2026-05-05 10:58 | 42.72343 | 9.22326 | 36978 ft | 392 kts | 240° |
| 2026-05-05 10:58 | 42.69550 | 9.16003 | 36976 ft | 392 kts | 240° |
| 2026-05-05 10:59 | 42.66742 | 9.09661 | 36984 ft | 390 kts | 240° |
| 2026-05-05 10:59 | 42.63958 | 9.03384 | 36996 ft | 392 kts | 240° |
| 2026-05-05 11:00 | 42.61149 | 8.97067 | 36999 ft | 391 kts | 240° |
| 2026-05-05 11:00 | 42.58333 | 8.90747 | 37009 ft | 391 kts | 240° |
| 2026-05-05 11:01 | 42.55520 | 8.84446 | 37011 ft | 391 kts | 240° |
| 2026-05-05 11:01 | 42.52713 | 8.78171 | 36996 ft | 390 kts | 240° |
| 2026-05-05 11:02 | 42.49910 | 8.71921 | 36990 ft | 390 kts | 240° |
| 2026-05-05 11:02 | 42.47095 | 8.65655 | 36986 ft | 390 kts | 240° |
| 2026-05-05 11:03 | 42.44270 | 8.59378 | 36988 ft | 389 kts | 240° |
| 2026-05-05 11:03 | 42.41464 | 8.53162 | 36980 ft | 389 kts | 240° |
| 2026-05-05 11:04 | 42.38639 | 8.46915 | 36974 ft | 389 kts | 240° |
| 2026-05-05 11:04 | 42.35808 | 8.40667 | 36977 ft | 388 kts | 240° |
| 2026-05-05 11:05 | 42.32997 | 8.34478 | 36977 ft | 387 kts | 239° |
| 2026-05-05 11:05 | 42.30197 | 8.28322 | 36977 ft | 388 kts | 239° |
| 2026-05-05 11:06 | 42.27371 | 8.22122 | 36971 ft | 387 kts | 239° |
| 2026-05-05 11:06 | 42.24561 | 8.15970 | 36972 ft | 386 kts | 239° |
| 2026-05-05 11:07 | 42.21738 | 8.09805 | 36969 ft | 387 kts | 239° |
| 2026-05-05 11:07 | 42.18908 | 8.03640 | 36969 ft | 385 kts | 239° |
| 2026-05-05 11:08 | 42.16097 | 7.97522 | 36969 ft | 386 kts | 239° |
| 2026-05-05 11:08 | 42.13283 | 7.91415 | 36963 ft | 385 kts | 239° |
| 2026-05-05 11:09 | 42.10463 | 7.85306 | 36969 ft | 386 kts | 239° |
| 2026-05-05 11:09 | 42.07630 | 7.79183 | 36963 ft | 384 kts | 239° |
| 2026-05-05 11:10 | 42.04815 | 7.73110 | 36965 ft | 384 kts | 239° |
| 2026-05-05 11:10 | 42.01989 | 7.67025 | 36964 ft | 383 kts | 239° |
| 2026-05-05 11:11 | 41.99178 | 7.60983 | 36969 ft | 383 kts | 239° |
| 2026-05-05 11:11 | 41.96347 | 7.54913 | 36964 ft | 382 kts | 239° |
| 2026-05-05 11:12 | 41.93533 | 7.48892 | 36964 ft | 382 kts | 239° |
| 2026-05-05 11:12 | 41.90711 | 7.42863 | 36965 ft | 382 kts | 239° |
| 2026-05-05 11:13 | 41.87889 | 7.36848 | 36966 ft | 382 kts | 239° |
| 2026-05-05 11:13 | 41.85070 | 7.30851 | 36964 ft | 383 kts | 239° |
| 2026-05-05 11:14 | 41.82237 | 7.24836 | 36965 ft | 382 kts | 238° |
| 2026-05-05 11:14 | 41.79402 | 7.18832 | 36966 ft | 383 kts | 238° |
| 2026-05-05 11:15 | 41.76561 | 7.12826 | 36967 ft | 382 kts | 238° |
| 2026-05-05 11:15 | 41.73716 | 7.06821 | 36968 ft | 381 kts | 238° |
| 2026-05-05 11:16 | 41.70881 | 7.00849 | 36965 ft | 381 kts | 239° |
| 2026-05-05 11:16 | 41.68052 | 6.94899 | 36963 ft | 381 kts | 239° |
| 2026-05-05 11:17 | 41.65217 | 6.88954 | 36966 ft | 380 kts | 239° |
| 2026-05-05 11:17 | 41.62378 | 6.83009 | 36965 ft | 380 kts | 239° |
| 2026-05-05 11:18 | 41.59523 | 6.77043 | 36960 ft | 380 kts | 239° |
| 2026-05-05 11:18 | 41.56702 | 6.71161 | 36961 ft | 379 kts | 239° |
| 2026-05-05 11:19 | 41.53864 | 6.65253 | 36966 ft | 380 kts | 239° |
| 2026-05-05 11:19 | 41.51002 | 6.59305 | 36962 ft | 378 kts | 238° |
| 2026-05-05 11:20 | 41.48182 | 6.53454 | 36965 ft | 378 kts | 238° |
| 2026-05-05 11:20 | 41.45335 | 6.47563 | 36961 ft | 378 kts | 239° |
| 2026-05-05 11:21 | 41.42505 | 6.41720 | 36959 ft | 377 kts | 238° |
| 2026-05-05 11:21 | 41.39653 | 6.35839 | 36952 ft | 375 kts | 239° |
| 2026-05-05 11:22 | 41.36823 | 6.30018 | 36953 ft | 375 kts | 238° |
| 2026-05-05 11:22 | 41.33990 | 6.24201 | 36945 ft | 376 kts | 238° |
| 2026-05-05 11:23 | 41.31163 | 6.18407 | 36956 ft | 375 kts | 238° |
| 2026-05-05 11:23 | 41.28330 | 6.12609 | 36963 ft | 374 kts | 238° |
| 2026-05-05 11:24 | 41.25500 | 6.06832 | 36965 ft | 375 kts | 238° |
| 2026-05-05 11:24 | 41.22671 | 6.01068 | 36962 ft | 372 kts | 238° |
| 2026-05-05 11:25 | 41.19843 | 5.95311 | 36965 ft | 374 kts | 238° |
| 2026-05-05 11:25 | 41.17020 | 5.89578 | 36962 ft | 373 kts | 238° |
| 2026-05-05 11:26 | 41.14174 | 5.83809 | 36967 ft | 373 kts | 238° |
| 2026-05-05 11:26 | 41.11331 | 5.78061 | 36967 ft | 373 kts | 238° |
| 2026-05-05 11:27 | 41.08489 | 5.72323 | 36969 ft | 374 kts | 238° |
| 2026-05-05 11:27 | 41.05629 | 5.66559 | 36963 ft | 373 kts | 238° |
| 2026-05-05 11:28 | 41.02771 | 5.60811 | 36967 ft | 375 kts | 238° |
| 2026-05-05 11:28 | 40.99929 | 5.55105 | 36964 ft | 373 kts | 238° |
| 2026-05-05 11:29 | 40.97077 | 5.49386 | 36961 ft | 372 kts | 238° |
| 2026-05-05 11:29 | 40.94218 | 5.43669 | 36958 ft | 373 kts | 238° |
| 2026-05-05 11:30 | 40.91377 | 5.37991 | 36955 ft | 373 kts | 238° |
| 2026-05-05 11:30 | 40.88518 | 5.32293 | 36953 ft | 373 kts | 237° |
| 2026-05-05 11:31 | 40.85651 | 5.26591 | 36949 ft | 373 kts | 237° |
| 2026-05-05 11:31 | 40.82781 | 5.20896 | 36951 ft | 374 kts | 237° |
| 2026-05-05 11:32 | 40.79905 | 5.15197 | 36952 ft | 373 kts | 237° |
| 2026-05-05 11:32 | 40.77035 | 5.09514 | 36952 ft | 374 kts | 237° |
| 2026-05-05 11:33 | 40.74162 | 5.03843 | 36950 ft | 373 kts | 237° |
| 2026-05-05 11:33 | 40.71287 | 4.98180 | 36951 ft | 372 kts | 237° |
| 2026-05-05 11:34 | 40.68401 | 4.92499 | 36947 ft | 373 kts | 237° |
| 2026-05-05 11:34 | 40.65532 | 4.86862 | 36946 ft | 374 kts | 237° |
| 2026-05-05 11:35 | 40.62640 | 4.81192 | 36947 ft | 374 kts | 237° |
| 2026-05-05 11:35 | 40.59740 | 4.75518 | 36946 ft | 375 kts | 237° |
| 2026-05-05 11:36 | 40.56842 | 4.69861 | 36944 ft | 373 kts | 237° |
| 2026-05-05 11:36 | 40.54099 | 4.64098 | 36944 ft | 373 kts | 242° |
| 2026-05-05 11:37 | 40.51718 | 4.58069 | 36942 ft | 373 kts | 243° |
| 2026-05-05 11:37 | 40.49389 | 4.51997 | 36941 ft | 373 kts | 243° |
| 2026-05-05 11:38 | 40.47036 | 4.45943 | 36941 ft | 373 kts | 243° |
| 2026-05-05 11:38 | 40.44665 | 4.39913 | 36938 ft | 373 kts | 243° |
| 2026-05-05 11:39 | 40.42281 | 4.33876 | 36938 ft | 373 kts | 242° |
| 2026-05-05 11:39 | 40.39886 | 4.27839 | 36937 ft | 374 kts | 242° |
| 2026-05-05 11:40 | 40.37501 | 4.21840 | 36935 ft | 373 kts | 242° |
| 2026-05-05 11:40 | 40.35100 | 4.15812 | 36934 ft | 374 kts | 242° |
| 2026-05-05 11:41 | 40.32696 | 4.09792 | 36932 ft | 373 kts | 242° |
| 2026-05-05 11:41 | 40.30303 | 4.03809 | 36929 ft | 373 kts | 242° |
| 2026-05-05 11:42 | 40.27890 | 3.97788 | 36931 ft | 373 kts | 242° |
| 2026-05-05 11:42 | 40.25492 | 3.91816 | 36929 ft | 371 kts | 242° |
| 2026-05-05 11:43 | 40.23089 | 3.85843 | 36930 ft | 373 kts | 242° |
| 2026-05-05 11:43 | 40.20687 | 3.79882 | 36930 ft | 373 kts | 242° |
| 2026-05-05 11:44 | 40.18281 | 3.73930 | 36926 ft | 372 kts | 242° |
| 2026-05-05 11:44 | 40.15863 | 3.67963 | 36925 ft | 372 kts | 242° |
| 2026-05-05 11:45 | 40.13443 | 3.62008 | 36926 ft | 371 kts | 242° |
| 2026-05-05 11:45 | 40.11029 | 3.56078 | 36928 ft | 372 kts | 242° |
| 2026-05-05 11:46 | 40.08607 | 3.50138 | 36924 ft | 371 kts | 242° |
| 2026-05-05 11:46 | 40.06176 | 3.44185 | 36914 ft | 372 kts | 242° |
| 2026-05-05 11:47 | 40.03752 | 3.38258 | 36918 ft | 371 kts | 242° |
| 2026-05-05 11:47 | 40.01320 | 3.32327 | 36916 ft | 372 kts | 242° |
| 2026-05-05 11:48 | 39.97674 | 3.23457 | 36912 ft | 371 kts | 242° |
| 2026-05-05 11:48 | 39.95249 | 3.17566 | 36909 ft | 371 kts | 241° |
| 2026-05-05 11:49 | 39.92821 | 3.11693 | 36908 ft | 369 kts | 241° |
| 2026-05-05 11:49 | 39.90066 | 3.06020 | 36910 ft | 370 kts | 236° |
| 2026-05-05 11:50 | 39.87153 | 3.00585 | 36909 ft | 369 kts | 236° |
| 2026-05-05 11:50 | 39.84209 | 2.95066 | 36915 ft | 370 kts | 236° |
| 2026-05-05 11:51 | 39.81323 | 2.89599 | 36922 ft | 370 kts | 236° |
| 2026-05-05 11:51 | 39.78419 | 2.84077 | 36937 ft | 369 kts | 236° |
| 2026-05-05 11:52 | 39.75523 | 2.78567 | 36954 ft | 371 kts | 237° |
| 2026-05-05 11:52 | 39.72619 | 2.73046 | 36968 ft | 370 kts | 236° |
| 2026-05-05 11:53 | 39.69739 | 2.67581 | 36957 ft | 370 kts | 236° |
| 2026-05-05 11:53 | 39.66818 | 2.62047 | 36949 ft | 372 kts | 237° |
| 2026-05-05 11:54 | 39.63913 | 2.56549 | 36947 ft | 371 kts | 237° |
| 2026-05-05 11:54 | 39.60996 | 2.51034 | 36943 ft | 372 kts | 236° |
| 2026-05-05 11:55 | 39.58086 | 2.45541 | 36938 ft | 372 kts | 237° |
| 2026-05-05 11:55 | 39.55159 | 2.40025 | 36935 ft | 372 kts | 237° |
| 2026-05-05 11:56 | 39.52427 | 2.34366 | 36933 ft | 372 kts | 240° |
| 2026-05-05 11:56 | 39.49871 | 2.28536 | 36928 ft | 372 kts | 240° |
| 2026-05-05 11:57 | 39.47309 | 2.22717 | 36927 ft | 372 kts | 239° |
| 2026-05-05 11:57 | 39.44722 | 2.16925 | 36929 ft | 373 kts | 239° |
| 2026-05-05 11:58 | 39.42120 | 2.11151 | 36929 ft | 374 kts | 239° |
| 2026-05-05 11:58 | 39.39504 | 2.05365 | 36928 ft | 374 kts | 239° |
| 2026-05-05 11:59 | 39.36895 | 1.99610 | 36927 ft | 374 kts | 239° |
| 2026-05-05 11:59 | 39.34264 | 1.93821 | 36925 ft | 375 kts | 239° |
| 2026-05-05 12:00 | 39.31627 | 1.88025 | 36925 ft | 373 kts | 240° |
| 2026-05-05 12:00 | 39.29008 | 1.82283 | 36924 ft | 373 kts | 239° |
| 2026-05-05 12:01 | 39.26397 | 1.76568 | 36930 ft | 372 kts | 239° |
| 2026-05-05 12:01 | 39.23772 | 1.70831 | 36929 ft | 372 kts | 239° |
| 2026-05-05 12:02 | 39.21142 | 1.65097 | 36923 ft | 373 kts | 239° |
| 2026-05-05 12:02 | 39.18499 | 1.59342 | 36928 ft | 373 kts | 239° |
| 2026-05-05 12:03 | 39.15864 | 1.53618 | 36929 ft | 373 kts | 239° |
| 2026-05-05 12:03 | 39.13234 | 1.47911 | 36925 ft | 372 kts | 239° |
| 2026-05-05 12:04 | 39.10834 | 1.42006 | 36929 ft | 373 kts | 245° |
| 2026-05-05 12:04 | 39.08910 | 1.35842 | 36928 ft | 373 kts | 248° |
| 2026-05-05 12:05 | 39.07062 | 1.29604 | 36534 ft | 370 kts | 248° |
| 2026-05-05 12:05 | 39.06153 | 1.26552 | 36095 ft | 364 kts | 247° |
| 2026-05-05 12:05 | 39.05254 | 1.23563 | 35631 ft | 363 kts | 247° |
| 2026-05-05 12:06 | 39.04333 | 1.20520 | 35066 ft | 363 kts | 247° |
| 2026-05-05 12:06 | 39.03420 | 1.17520 | 34493 ft | 364 kts | 247° |
| 2026-05-05 12:06 | 39.02502 | 1.14515 | 33836 ft | 364 kts | 247° |
| 2026-05-05 12:06 | 39.01578 | 1.11498 | 33192 ft | 364 kts | 247° |
| 2026-05-05 12:07 | 39.00644 | 1.08459 | 32590 ft | 368 kts | 247° |
| 2026-05-05 12:07 | 38.99708 | 1.05419 | 32155 ft | 371 kts | 247° |
| 2026-05-05 12:07 | 38.98771 | 1.02374 | 31683 ft | 369 kts | 247° |
| 2026-05-05 12:07 | 38.97838 | 0.99343 | 31204 ft | 363 kts | 247° |
| 2026-05-05 12:08 | 38.96919 | 0.96361 | 30739 ft | 358 kts | 247° |
| 2026-05-05 12:08 | 38.96003 | 0.93393 | 30267 ft | 352 kts | 247° |
| 2026-05-05 12:08 | 38.95112 | 0.90506 | 29820 ft | 352 kts | 247° |
| 2026-05-05 12:08 | 38.94209 | 0.87586 | 29359 ft | 356 kts | 247° |
| 2026-05-05 12:09 | 38.93300 | 0.84650 | 28878 ft | 353 kts | 247° |
| 2026-05-05 12:09 | 38.92402 | 0.81752 | 28403 ft | 348 kts | 247° |
| 2026-05-05 12:09 | 38.91510 | 0.78872 | 27943 ft | 344 kts | 247° |
| 2026-05-05 12:09 | 38.90641 | 0.76073 | 27487 ft | 339 kts | 247° |
| 2026-05-05 12:10 | 38.89766 | 0.73261 | 27027 ft | 341 kts | 247° |
| 2026-05-05 12:10 | 38.88874 | 0.70396 | 26565 ft | 347 kts | 247° |
| 2026-05-05 12:10 | 38.87993 | 0.67569 | 26087 ft | 344 kts | 247° |
| 2026-05-05 12:10 | 38.87107 | 0.64728 | 25615 ft | 340 kts | 247° |
| 2026-05-05 12:11 | 38.86247 | 0.61972 | 25165 ft | 335 kts | 248° |
| 2026-05-05 12:11 | 38.85381 | 0.59200 | 24699 ft | 331 kts | 248° |
| 2026-05-05 12:11 | 38.84538 | 0.56504 | 24257 ft | 327 kts | 248° |
| 2026-05-05 12:11 | 38.83699 | 0.53823 | 23811 ft | 329 kts | 248° |
| 2026-05-05 12:12 | 38.82830 | 0.51053 | 23345 ft | 333 kts | 248° |
| 2026-05-05 12:12 | 38.81994 | 0.48348 | 22959 ft | 329 kts | 249° |
| 2026-05-05 12:12 | 38.81290 | 0.45567 | 22926 ft | 326 kts | 252° |
| 2026-05-05 12:12 | 38.80696 | 0.42758 | 22919 ft | 332 kts | 254° |
| 2026-05-05 12:13 | 38.80123 | 0.39882 | 22928 ft | 333 kts | 254° |
| 2026-05-05 12:13 | 38.79553 | 0.37013 | 22916 ft | 331 kts | 254° |
| 2026-05-05 12:13 | 38.78983 | 0.34192 | 22916 ft | 331 kts | 253° |
| 2026-05-05 12:13 | 38.78395 | 0.31329 | 22918 ft | 332 kts | 253° |
| 2026-05-05 12:14 | 38.77800 | 0.28464 | 22916 ft | 333 kts | 253° |
| 2026-05-05 12:14 | 38.77200 | 0.25603 | 22915 ft | 332 kts | 253° |
| 2026-05-05 12:14 | 38.76602 | 0.22759 | 22914 ft | 331 kts | 253° |
| 2026-05-05 12:14 | 38.76005 | 0.19936 | 22843 ft | 330 kts | 253° |
| 2026-05-05 12:15 | 38.75408 | 0.17122 | 22478 ft | 326 kts | 253° |
| 2026-05-05 12:15 | 38.74816 | 0.14337 | 22041 ft | 322 kts | 253° |
| 2026-05-05 12:15 | 38.74238 | 0.11615 | 21607 ft | 319 kts | 253° |
| 2026-05-05 12:15 | 38.73649 | 0.08852 | 21153 ft | 323 kts | 253° |
| 2026-05-05 12:16 | 38.73055 | 0.06072 | 20696 ft | 326 kts | 253° |
| 2026-05-05 12:16 | 38.72463 | 0.03300 | 20244 ft | 322 kts | 253° |
| 2026-05-05 12:16 | 38.71886 | 0.00596 | 19802 ft | 318 kts | 253° |
| 2026-05-05 12:16 | 38.71304 | -0.02123 | 19348 ft | 313 kts | 253° |
| 2026-05-05 12:17 | 38.70739 | -0.04764 | 18919 ft | 309 kts | 253° |
| 2026-05-05 12:17 | 38.70176 | -0.07394 | 18488 ft | 306 kts | 253° |
| 2026-05-05 12:17 | 38.69603 | -0.10065 | 18039 ft | 313 kts | 253° |
| 2026-05-05 12:17 | 38.69029 | -0.12739 | 17611 ft | 311 kts | 253° |
| 2026-05-05 12:18 | 38.68466 | -0.15352 | 17181 ft | 306 kts | 253° |
| 2026-05-05 12:18 | 38.67902 | -0.17968 | 16745 ft | 302 kts | 253° |
| 2026-05-05 12:18 | 38.67349 | -0.20534 | 16320 ft | 300 kts | 254° |
| 2026-05-05 12:18 | 38.66787 | -0.23142 | 15888 ft | 307 kts | 254° |
| 2026-05-05 12:19 | 38.66224 | -0.25741 | 15448 ft | 305 kts | 254° |
| 2026-05-05 12:19 | 38.65665 | -0.28326 | 15015 ft | 300 kts | 253° |
| 2026-05-05 12:19 | 38.65111 | -0.30884 | 14581 ft | 296 kts | 254° |
| 2026-05-05 12:19 | 38.64566 | -0.33398 | 14156 ft | 297 kts | 254° |
| 2026-05-05 12:20 | 38.64005 | -0.35978 | 13721 ft | 301 kts | 254° |
| 2026-05-05 12:20 | 38.63452 | -0.38523 | 13289 ft | 297 kts | 254° |
| 2026-05-05 12:20 | 38.62905 | -0.41040 | 12854 ft | 293 kts | 254° |
| 2026-05-05 12:20 | 38.62358 | -0.43545 | 12413 ft | 290 kts | 254° |
| 2026-05-05 12:21 | 38.61820 | -0.46009 | 11992 ft | 295 kts | 254° |
| 2026-05-05 12:21 | 38.61263 | -0.48550 | 11560 ft | 297 kts | 254° |
| 2026-05-05 12:21 | 38.60710 | -0.51075 | 11121 ft | 294 kts | 254° |
| 2026-05-05 12:21 | 38.60165 | -0.53566 | 10691 ft | 291 kts | 254° |
| 2026-05-05 12:22 | 38.59628 | -0.56019 | 10383 ft | 285 kts | 254° |
| 2026-05-05 12:22 | 38.59104 | -0.58410 | 10210 ft | 274 kts | 254° |
| 2026-05-05 12:22 | 38.58602 | -0.60698 | 10116 ft | 262 kts | 254° |
| 2026-05-05 12:22 | 38.58115 | -0.62910 | 9938 ft | 254 kts | 254° |
| 2026-05-05 12:23 | 38.57645 | -0.65048 | 9612 ft | 252 kts | 253° |
| 2026-05-05 12:23 | 38.57171 | -0.67202 | 9308 ft | 256 kts | 254° |
| 2026-05-05 12:23 | 38.56681 | -0.69420 | 8979 ft | 258 kts | 254° |
| 2026-05-05 12:23 | 38.56197 | -0.71609 | 8662 ft | 256 kts | 254° |
| 2026-05-05 12:24 | 38.55722 | -0.73758 | 8343 ft | 254 kts | 254° |
| 2026-05-05 12:24 | 38.55246 | -0.75916 | 8031 ft | 251 kts | 254° |
| 2026-05-05 12:24 | 38.54775 | -0.78047 | 7821 ft | 244 kts | 253° |
| 2026-05-05 12:24 | 38.54200 | -0.80023 | 7737 ft | 232 kts | 241° |
| 2026-05-05 12:25 | 38.53148 | -0.81518 | 7592 ft | 228 kts | 213° |
| 2026-05-05 12:25 | 38.51621 | -0.82258 | 7324 ft | 241 kts | 193° |
| 2026-05-05 12:25 | 38.49970 | -0.82585 | 7058 ft | 238 kts | 191° |
| 2026-05-05 12:25 | 38.48359 | -0.82922 | 6756 ft | 233 kts | 192° |
| 2026-05-05 12:26 | 38.46813 | -0.83274 | 6504 ft | 222 kts | 192° |
| 2026-05-05 12:26 | 38.45303 | -0.83619 | 6253 ft | 213 kts | 192° |
| 2026-05-05 12:26 | 38.43884 | -0.83940 | 6013 ft | 204 kts | 191° |
| 2026-05-05 12:26 | 38.42511 | -0.84251 | 5828 ft | 199 kts | 191° |
| 2026-05-05 12:27 | 38.41158 | -0.84559 | 5632 ft | 193 kts | 192° |
| 2026-05-05 12:27 | 38.39865 | -0.84850 | 5496 ft | 188 kts | 191° |
| 2026-05-05 12:27 | 38.38563 | -0.85143 | 5356 ft | 189 kts | 191° |
| 2026-05-05 12:27 | 38.37279 | -0.85433 | 5221 ft | 190 kts | 191° |
| 2026-05-05 12:28 | 38.35966 | -0.85725 | 5020 ft | 189 kts | 191° |
| 2026-05-05 12:28 | 38.34664 | -0.85976 | 4818 ft | 187 kts | 184° |
| 2026-05-05 12:28 | 38.33399 | -0.85724 | 4649 ft | 189 kts | 153° |
| 2026-05-05 12:28 | 38.32413 | -0.84600 | 4424 ft | 192 kts | 124° |
| 2026-05-05 12:29 | 38.31895 | -0.83099 | 4093 ft | 186 kts | 101° |
| 2026-05-05 12:29 | 38.31817 | -0.81493 | 3823 ft | 179 kts | 95° |
| 2026-05-05 12:29 | 38.31647 | -0.79927 | 3595 ft | 179 kts | 103° |
| 2026-05-05 12:29 | 38.31382 | -0.78393 | 3365 ft | 173 kts | 104° |
| 2026-05-05 12:30 | 38.31152 | -0.76915 | 3214 ft | 171 kts | 102° |
| 2026-05-05 12:30 | 38.30949 | -0.75422 | 2913 ft | 170 kts | 101° |
| 2026-05-05 12:30 | 38.30753 | -0.73984 | 2671 ft | 162 kts | 101° |
| 2026-05-05 12:30 | 38.30561 | -0.72606 | 2458 ft | 152 kts | 102° |
| 2026-05-05 12:31 | 38.30381 | -0.71309 | 2281 ft | 150 kts | 101° |
| 2026-05-05 12:31 | 38.30198 | -0.69995 | 2071 ft | 150 kts | 102° |
| 2026-05-05 12:31 | 38.30017 | -0.68688 | 1871 ft | 148 kts | 101° |
| 2026-05-05 12:31 | 38.29841 | -0.67423 | 1674 ft | 145 kts | 101° |
| 2026-05-05 12:32 | 38.29663 | -0.66145 | 1494 ft | 146 kts | 101° |
| 2026-05-05 12:32 | 38.29487 | -0.64882 | 1290 ft | 145 kts | 102° |
| 2026-05-05 12:32 | 38.29313 | -0.63625 | 1105 ft | 145 kts | 102° |
| 2026-05-05 12:32 | 38.29136 | -0.62356 | 908 ft | 144 kts | 101° |
| 2026-05-05 12:33 | 38.28963 | -0.61130 | 740 ft | 142 kts | 102° |
| 2026-05-05 12:33 | 38.28790 | -0.59885 | 538 ft | 145 kts | 103° |
| 2026-05-05 12:33 | 38.28618 | -0.58640 | 361 ft | 143 kts | 104° |
| 2026-05-05 12:33 | 38.28438 | -0.57377 | 202 ft | 143 kts | 102° |
| 2026-05-05 12:34 | 38.28278 | -0.56213 | 124 ft | 123 kts | 99° |
| 2026-05-05 12:34 | 38.28228 | -0.55604 | 95 ft | 9 kts | 70° |
| 2026-05-05 12:34 | 38.28231 | -0.55594 | 95 ft | 4 kts | 70° |
| 2026-05-05 12:34 | 38.28269 | -0.55459 | 97 ft | 24 kts | 70° |
| 2026-05-05 12:35 | 38.28340 | -0.55249 | 86 ft | 18 kts | 57° |
| 2026-05-05 12:35 | 38.28434 | -0.55173 | 81 ft | 10 kts | 331° |
| 2026-05-05 12:35 | 38.28479 | -0.55183 | 81 ft | 10 kts | 6° |
| 2026-05-05 12:35 | 38.28518 | -0.55175 | 81 ft | 0 kts | 9° |